sensor_id;sensor_type;location;lat;lon;timestamp;P1;durP1;ratioP1;P2;durP2;ratioP2
43449;SDS011;29041;42.266;23.110;2023-03-01T00:02:43;3.35;;;1.67;;
43449;SDS011;29041;42.266;23.110;2023-03-01T00:05:32;3.45;;;1.98;;
43449;SDS011;29041;42.266;23.110;2023-03-01T00:08:19;2.28;;;1.77;;
43449;SDS011;29041;42.266;23.110;2023-03-01T00:11:07;2.40;;;1.08;;
43449;SDS011;29041;42.266;23.110;2023-03-01T00:14:01;2.55;;;1.30;;
43449;SDS011;29041;42.266;23.110;2023-03-01T00:16:58;4.75;;;1.48;;
43449;SDS011;29041;42.266;23.110;2023-03-01T00:22:39;1.27;;;0.60;;
43449;SDS011;29041;42.266;23.110;2023-03-01T00:25:26;3.40;;;0.95;;
43449;SDS011;29041;42.266;23.110;2023-03-01T00:28:28;0.77;;;0.63;;
43449;SDS011;29041;42.266;23.110;2023-03-01T00:31:17;3.38;;;0.68;;
43449;SDS011;29041;42.266;23.110;2023-03-01T00:34:05;0.50;;;0.50;;
43449;SDS011;29041;42.266;23.110;2023-03-01T00:36:52;0.55;;;0.40;;
43449;SDS011;29041;42.266;23.110;2023-03-01T00:39:52;1.02;;;0.52;;
43449;SDS011;29041;42.266;23.110;2023-03-01T00:42:40;2.08;;;0.88;;
43449;SDS011;29041;42.266;23.110;2023-03-01T00:45:32;1.10;;;0.70;;
43449;SDS011;29041;42.266;23.110;2023-03-01T00:48:20;4.57;;;1.02;;
43449;SDS011;29041;42.266;23.110;2023-03-01T00:51:07;4.53;;;1.13;;
43449;SDS011;29041;42.266;23.110;2023-03-01T00:53:57;1.70;;;0.70;;
43449;SDS011;29041;42.266;23.110;2023-03-01T00:56:47;2.17;;;1.02;;
43449;SDS011;29041;42.266;23.110;2023-03-01T00:59:34;4.43;;;1.00;;
43449;SDS011;29041;42.266;23.110;2023-03-01T01:02:21;2.40;;;1.15;;
43449;SDS011;29041;42.266;23.110;2023-03-01T01:05:09;1.75;;;1.05;;
43449;SDS011;29041;42.266;23.110;2023-03-01T01:07:56;1.05;;;0.70;;
43449;SDS011;29041;42.266;23.110;2023-03-01T01:10:43;1.40;;;0.80;;
43449;SDS011;29041;42.266;23.110;2023-03-01T01:13:32;1.33;;;1.17;;
43449;SDS011;29041;42.266;23.110;2023-03-01T01:16:20;1.35;;;0.73;;
43449;SDS011;29041;42.266;23.110;2023-03-01T01:19:10;1.92;;;0.95;;
43449;SDS011;29041;42.266;23.110;2023-03-01T01:21:57;0.57;;;0.40;;
43449;SDS011;29041;42.266;23.110;2023-03-01T01:24:59;1.15;;;1.05;;
43449;SDS011;29041;42.266;23.110;2023-03-01T01:27:54;0.52;;;0.50;;
43449;SDS011;29041;42.266;23.110;2023-03-01T01:30:49;2.67;;;0.70;;
43449;SDS011;29041;42.266;23.110;2023-03-01T01:36:28;0.77;;;0.65;;
43449;SDS011;29041;42.266;23.110;2023-03-01T01:39:16;1.10;;;0.82;;
43449;SDS011;29041;42.266;23.110;2023-03-01T01:42:03;1.08;;;0.50;;
43449;SDS011;29041;42.266;23.110;2023-03-01T02:00:19;0.60;;;0.52;;
43449;SDS011;29041;42.266;23.110;2023-03-01T02:03:09;1.20;;;0.93;;
43449;SDS011;29041;42.266;23.110;2023-03-01T02:05:58;1.00;;;0.93;;
43449;SDS011;29041;42.266;23.110;2023-03-01T02:08:50;0.40;;;0.40;;
43449;SDS011;29041;42.266;23.110;2023-03-01T02:22:02;1.73;;;0.63;;
43449;SDS011;29041;42.266;23.110;2023-03-01T02:25:06;1.83;;;0.60;;
43449;SDS011;29041;42.266;23.110;2023-03-01T02:28:07;1.48;;;0.38;;
43449;SDS011;29041;42.266;23.110;2023-03-01T02:43:57;0.65;;;0.52;;
43449;SDS011;29041;42.266;23.110;2023-03-01T02:46:45;1.90;;;0.80;;
43449;SDS011;29041;42.266;23.110;2023-03-01T02:49:35;0.88;;;0.50;;
43449;SDS011;29041;42.266;23.110;2023-03-01T02:52:26;1.13;;;0.75;;
43449;SDS011;29041;42.266;23.110;2023-03-01T03:03:06;0.98;;;0.73;;
43449;SDS011;29041;42.266;23.110;2023-03-01T03:05:54;1.23;;;0.70;;
43449;SDS011;29041;42.266;23.110;2023-03-01T03:08:42;1.33;;;0.65;;
43449;SDS011;29041;42.266;23.110;2023-03-01T03:11:29;1.45;;;0.85;;
43449;SDS011;29041;42.266;23.110;2023-03-01T03:14:18;1.90;;;0.60;;
43449;SDS011;29041;42.266;23.110;2023-03-01T03:17:10;1.50;;;0.73;;
43449;SDS011;29041;42.266;23.110;2023-03-01T03:20:01;1.83;;;0.80;;
43449;SDS011;29041;42.266;23.110;2023-03-01T03:22:52;1.80;;;1.33;;
43449;SDS011;29041;42.266;23.110;2023-03-01T03:25:40;1.25;;;0.80;;
43449;SDS011;29041;42.266;23.110;2023-03-01T03:28:28;1.58;;;0.80;;
43449;SDS011;29041;42.266;23.110;2023-03-01T03:31:16;1.30;;;0.80;;
43449;SDS011;29041;42.266;23.110;2023-03-01T03:34:03;1.42;;;0.90;;
43449;SDS011;29041;42.266;23.110;2023-03-01T03:36:54;3.53;;;1.23;;
43449;SDS011;29041;42.266;23.110;2023-03-01T03:39:44;1.48;;;0.90;;
43449;SDS011;29041;42.266;23.110;2023-03-01T03:42:31;1.55;;;1.05;;
43449;SDS011;29041;42.266;23.110;2023-03-01T03:45:19;4.05;;;2.08;;
43449;SDS011;29041;42.266;23.110;2023-03-01T03:48:06;1.73;;;0.85;;
43449;SDS011;29041;42.266;23.110;2023-03-01T03:50:59;1.65;;;0.65;;
43449;SDS011;29041;42.266;23.110;2023-03-01T03:53:48;0.98;;;0.57;;
43449;SDS011;29041;42.266;23.110;2023-03-01T03:56:35;3.33;;;1.25;;
43449;SDS011;29041;42.266;23.110;2023-03-01T03:59:32;2.90;;;1.55;;
43449;SDS011;29041;42.266;23.110;2023-03-01T04:02:19;2.65;;;1.20;;
43449;SDS011;29041;42.266;23.110;2023-03-01T04:05:08;3.08;;;1.30;;
43449;SDS011;29041;42.266;23.110;2023-03-01T04:10:31;3.45;;;1.20;;
43449;SDS011;29041;42.266;23.110;2023-03-01T04:13:21;2.55;;;1.08;;
43449;SDS011;29041;42.266;23.110;2023-03-01T04:21:20;1.52;;;1.23;;
43449;SDS011;29041;42.266;23.110;2023-03-01T04:26:45;2.30;;;1.60;;
43449;SDS011;29041;42.266;23.110;2023-03-01T04:29:32;1.35;;;0.70;;
43449;SDS011;29041;42.266;23.110;2023-03-01T04:32:20;2.70;;;1.30;;
43449;SDS011;29041;42.266;23.110;2023-03-01T04:35:07;1.05;;;0.80;;
43449;SDS011;29041;42.266;23.110;2023-03-01T04:40:30;3.17;;;1.35;;
43449;SDS011;29041;42.266;23.110;2023-03-01T04:43:19;1.92;;;0.90;;
43449;SDS011;29041;42.266;23.110;2023-03-01T04:46:07;1.10;;;0.90;;
43449;SDS011;29041;42.266;23.110;2023-03-01T04:48:56;1.88;;;0.73;;
43449;SDS011;29041;42.266;23.110;2023-03-01T04:51:44;0.70;;;0.57;;
43449;SDS011;29041;42.266;23.110;2023-03-01T04:54:32;2.65;;;1.00;;
43449;SDS011;29041;42.266;23.110;2023-03-01T04:57:21;1.73;;;1.08;;
43449;SDS011;29041;42.266;23.110;2023-03-01T05:00:12;0.98;;;0.73;;
43449;SDS011;29041;42.266;23.110;2023-03-01T05:03:07;1.73;;;1.00;;
43449;SDS011;29041;42.266;23.110;2023-03-01T05:05:57;0.98;;;0.70;;
43449;SDS011;29041;42.266;23.110;2023-03-01T05:08:47;2.42;;;1.70;;
43449;SDS011;29041;42.266;23.110;2023-03-01T05:11:34;1.48;;;1.05;;
43449;SDS011;29041;42.266;23.110;2023-03-01T05:14:22;4.38;;;1.52;;
43449;SDS011;29041;42.266;23.110;2023-03-01T05:17:10;1.50;;;1.40;;
43449;SDS011;29041;42.266;23.110;2023-03-01T05:19:57;1.85;;;1.38;;
43449;SDS011;29041;42.266;23.110;2023-03-01T05:22:45;1.60;;;0.80;;
43449;SDS011;29041;42.266;23.110;2023-03-01T05:25:32;1.08;;;0.70;;
43449;SDS011;29041;42.266;23.110;2023-03-01T05:28:25;1.83;;;0.98;;
43449;SDS011;29041;42.266;23.110;2023-03-01T05:31:13;1.52;;;0.90;;
43449;SDS011;29041;42.266;23.110;2023-03-01T05:34:02;2.05;;;0.98;;
43449;SDS011;29041;42.266;23.110;2023-03-01T05:36:50;2.38;;;1.10;;
43449;SDS011;29041;42.266;23.110;2023-03-01T05:39:38;1.08;;;0.70;;
43449;SDS011;29041;42.266;23.110;2023-03-01T05:42:28;1.13;;;0.40;;
43449;SDS011;29041;42.266;23.110;2023-03-01T05:45:16;1.65;;;1.30;;
43449;SDS011;29041;42.266;23.110;2023-03-01T05:48:04;2.47;;;1.25;;
43449;SDS011;29041;42.266;23.110;2023-03-01T05:50:53;5.47;;;1.23;;
43449;SDS011;29041;42.266;23.110;2023-03-01T05:53:40;1.88;;;0.80;;
43449;SDS011;29041;42.266;23.110;2023-03-01T05:56:28;1.17;;;0.90;;
43449;SDS011;29041;42.266;23.110;2023-03-01T05:59:16;1.45;;;0.80;;
43449;SDS011;29041;42.266;23.110;2023-03-01T06:02:03;1.15;;;0.90;;
43449;SDS011;29041;42.266;23.110;2023-03-01T06:04:53;3.15;;;1.30;;
43449;SDS011;29041;42.266;23.110;2023-03-01T06:07:45;1.75;;;1.20;;
43449;SDS011;29041;42.266;23.110;2023-03-01T06:10:33;1.90;;;1.10;;
43449;SDS011;29041;42.266;23.110;2023-03-01T06:13:23;1.50;;;1.02;;
43449;SDS011;29041;42.266;23.110;2023-03-01T06:16:11;1.38;;;0.98;;
43449;SDS011;29041;42.266;23.110;2023-03-01T06:18:58;1.67;;;0.95;;
43449;SDS011;29041;42.266;23.110;2023-03-01T06:21:45;1.20;;;0.98;;
43449;SDS011;29041;42.266;23.110;2023-03-01T06:24:37;3.55;;;1.25;;
43449;SDS011;29041;42.266;23.110;2023-03-01T06:27:27;0.60;;;0.60;;
43449;SDS011;29041;42.266;23.110;2023-03-01T06:30:16;1.35;;;1.02;;
43449;SDS011;29041;42.266;23.110;2023-03-01T06:33:08;1.52;;;1.10;;
43449;SDS011;29041;42.266;23.110;2023-03-01T06:38:31;1.15;;;0.80;;
43449;SDS011;29041;42.266;23.110;2023-03-01T06:41:26;1.23;;;0.70;;
43449;SDS011;29041;42.266;23.110;2023-03-01T06:44:16;0.88;;;0.70;;
43449;SDS011;29041;42.266;23.110;2023-03-01T06:47:05;1.95;;;1.00;;
43449;SDS011;29041;42.266;23.110;2023-03-01T06:53:40;1.27;;;0.82;;
43449;SDS011;29041;42.266;23.110;2023-03-01T06:59:37;3.00;;;1.60;;
43449;SDS011;29041;42.266;23.110;2023-03-01T07:10:20;1.65;;;1.35;;
43449;SDS011;29041;42.266;23.110;2023-03-01T07:22:43;4.47;;;2.42;;
43449;SDS011;29041;42.266;23.110;2023-03-01T07:29:03;4.85;;;3.05;;
43449;SDS011;29041;42.266;23.110;2023-03-01T07:42:41;1.13;;;0.95;;
43449;SDS011;29041;42.266;23.110;2023-03-01T07:53:20;1.48;;;0.68;;
43449;SDS011;29041;42.266;23.110;2023-03-01T09:08:39;5.57;;;2.33;;
43449;SDS011;29041;42.266;23.110;2023-03-01T09:11:40;9.80;;;3.28;;
43449;SDS011;29041;42.266;23.110;2023-03-01T09:14:42;9.32;;;3.15;;
43449;SDS011;29041;42.266;23.110;2023-03-01T09:17:34;2.70;;;1.70;;
43449;SDS011;29041;42.266;23.110;2023-03-01T09:20:25;4.43;;;2.10;;
43449;SDS011;29041;42.266;23.110;2023-03-01T09:28:34;8.35;;;3.58;;
43449;SDS011;29041;42.266;23.110;2023-03-01T09:34:45;6.90;;;2.95;;
43449;SDS011;29041;42.266;23.110;2023-03-01T09:38:06;6.38;;;2.60;;
43449;SDS011;29041;42.266;23.110;2023-03-01T09:44:10;5.78;;;3.10;;
43449;SDS011;29041;42.266;23.110;2023-03-01T09:47:15;2.72;;;1.70;;
43449;SDS011;29041;42.266;23.110;2023-03-01T09:50:09;4.03;;;2.15;;
43449;SDS011;29041;42.266;23.110;2023-03-01T09:53:16;1.80;;;1.47;;
43449;SDS011;29041;42.266;23.110;2023-03-01T11:25:54;3.25;;;1.92;;
43449;SDS011;29041;42.266;23.110;2023-03-01T12:46:16;4.25;;;2.53;;
43449;SDS011;29041;42.266;23.110;2023-03-01T12:54:48;5.90;;;2.72;;
43449;SDS011;29041;42.266;23.110;2023-03-01T12:58:35;3.08;;;1.92;;
43449;SDS011;29041;42.266;23.110;2023-03-01T13:04:26;3.78;;;3.00;;
43449;SDS011;29041;42.266;23.110;2023-03-01T13:07:54;7.60;;;2.92;;
43449;SDS011;29041;42.266;23.110;2023-03-01T13:10:52;5.05;;;2.40;;
43449;SDS011;29041;42.266;23.110;2023-03-01T13:17:46;4.60;;;2.65;;
43449;SDS011;29041;42.266;23.110;2023-03-01T13:20:45;3.40;;;2.42;;
43449;SDS011;29041;42.266;23.110;2023-03-01T13:23:44;4.15;;;2.53;;
43449;SDS011;29041;42.266;23.110;2023-03-01T14:37:32;4.80;;;2.22;;
43449;SDS011;29041;42.266;23.110;2023-03-01T14:40:38;2.97;;;1.92;;
43449;SDS011;29041;42.266;23.110;2023-03-01T14:43:34;3.10;;;2.17;;
43449;SDS011;29041;42.266;23.110;2023-03-01T14:46:31;4.75;;;2.42;;
43449;SDS011;29041;42.266;23.110;2023-03-01T14:50:19;5.87;;;3.67;;
43449;SDS011;29041;42.266;23.110;2023-03-01T14:57:27;4.47;;;2.72;;
43449;SDS011;29041;42.266;23.110;2023-03-01T15:00:19;4.68;;;2.55;;
43449;SDS011;29041;42.266;23.110;2023-03-01T15:03:54;4.05;;;2.90;;
43449;SDS011;29041;42.266;23.110;2023-03-01T15:06:51;3.60;;;2.10;;
43449;SDS011;29041;42.266;23.110;2023-03-01T15:12:48;4.15;;;2.58;;
43449;SDS011;29041;42.266;23.110;2023-03-01T15:15:43;6.13;;;3.45;;
43449;SDS011;29041;42.266;23.110;2023-03-01T15:18:42;8.18;;;2.85;;
43449;SDS011;29041;42.266;23.110;2023-03-01T15:21:37;3.53;;;2.20;;
43449;SDS011;29041;42.266;23.110;2023-03-01T15:34:19;5.47;;;2.55;;
43449;SDS011;29041;42.266;23.110;2023-03-01T15:37:34;4.38;;;3.00;;
43449;SDS011;29041;42.266;23.110;2023-03-01T17:34:16;7.72;;;2.70;;
43449;SDS011;29041;42.266;23.110;2023-03-01T17:37:11;5.95;;;3.15;;
43449;SDS011;29041;42.266;23.110;2023-03-01T17:40:09;2.85;;;2.17;;
43449;SDS011;29041;42.266;23.110;2023-03-01T17:43:24;3.38;;;2.15;;
43449;SDS011;29041;42.266;23.110;2023-03-01T17:46:11;4.07;;;2.22;;
43449;SDS011;29041;42.266;23.110;2023-03-01T17:48:59;5.40;;;2.70;;
43449;SDS011;29041;42.266;23.110;2023-03-01T17:51:49;2.80;;;1.67;;
43449;SDS011;29041;42.266;23.110;2023-03-01T17:54:36;5.93;;;2.78;;
43449;SDS011;29041;42.266;23.110;2023-03-01T17:57:24;3.92;;;2.33;;
43449;SDS011;29041;42.266;23.110;2023-03-01T18:00:12;9.13;;;3.13;;
43449;SDS011;29041;42.266;23.110;2023-03-01T18:03:01;4.70;;;2.45;;
43449;SDS011;29041;42.266;23.110;2023-03-01T18:05:51;5.82;;;3.33;;
43449;SDS011;29041;42.266;23.110;2023-03-01T18:08:40;7.82;;;3.35;;
43449;SDS011;29041;42.266;23.110;2023-03-01T18:11:27;5.45;;;2.72;;
43449;SDS011;29041;42.266;23.110;2023-03-01T18:14:14;4.45;;;2.90;;
43449;SDS011;29041;42.266;23.110;2023-03-01T18:17:02;6.28;;;3.10;;
43449;SDS011;29041;42.266;23.110;2023-03-01T18:19:55;6.85;;;3.13;;
43449;SDS011;29041;42.266;23.110;2023-03-01T18:22:43;6.13;;;2.65;;
43449;SDS011;29041;42.266;23.110;2023-03-01T18:25:32;5.00;;;2.47;;
43449;SDS011;29041;42.266;23.110;2023-03-01T18:28:24;4.50;;;2.67;;
43449;SDS011;29041;42.266;23.110;2023-03-01T18:31:14;4.57;;;2.40;;
43449;SDS011;29041;42.266;23.110;2023-03-01T18:34:03;5.13;;;2.58;;
43449;SDS011;29041;42.266;23.110;2023-03-01T18:36:51;6.03;;;2.90;;
43449;SDS011;29041;42.266;23.110;2023-03-01T18:39:40;4.78;;;2.22;;
43449;SDS011;29041;42.266;23.110;2023-03-01T18:42:28;7.10;;;2.83;;
43449;SDS011;29041;42.266;23.110;2023-03-01T18:45:15;4.90;;;2.40;;
43449;SDS011;29041;42.266;23.110;2023-03-01T18:48:03;5.00;;;3.22;;
43449;SDS011;29041;42.266;23.110;2023-03-01T18:50:52;6.32;;;2.58;;
43449;SDS011;29041;42.266;23.110;2023-03-01T18:53:39;5.78;;;2.45;;
43449;SDS011;29041;42.266;23.110;2023-03-01T18:56:28;6.28;;;2.60;;
43449;SDS011;29041;42.266;23.110;2023-03-01T18:59:21;7.03;;;2.97;;
43449;SDS011;29041;42.266;23.110;2023-03-01T19:02:11;6.13;;;3.03;;
43449;SDS011;29041;42.266;23.110;2023-03-01T19:05:00;5.43;;;3.30;;
43449;SDS011;29041;42.266;23.110;2023-03-01T19:07:47;8.48;;;4.20;;
43449;SDS011;29041;42.266;23.110;2023-03-01T19:10:34;7.63;;;3.58;;
43449;SDS011;29041;42.266;23.110;2023-03-01T19:13:21;4.07;;;2.28;;
43449;SDS011;29041;42.266;23.110;2023-03-01T19:16:10;6.28;;;2.70;;
43449;SDS011;29041;42.266;23.110;2023-03-01T19:19:09;5.68;;;2.97;;
43449;SDS011;29041;42.266;23.110;2023-03-01T19:21:56;6.22;;;3.53;;
43449;SDS011;29041;42.266;23.110;2023-03-01T19:24:43;7.80;;;3.63;;
43449;SDS011;29041;42.266;23.110;2023-03-01T19:27:30;7.97;;;3.22;;
43449;SDS011;29041;42.266;23.110;2023-03-01T19:30:18;6.18;;;3.13;;
43449;SDS011;29041;42.266;23.110;2023-03-01T19:33:06;3.83;;;2.15;;
43449;SDS011;29041;42.266;23.110;2023-03-01T19:35:55;6.93;;;3.53;;
43449;SDS011;29041;42.266;23.110;2023-03-01T19:38:42;7.82;;;2.72;;
43449;SDS011;29041;42.266;23.110;2023-03-01T19:41:30;6.07;;;3.97;;
43449;SDS011;29041;42.266;23.110;2023-03-01T19:44:17;6.05;;;3.38;;
43449;SDS011;29041;42.266;23.110;2023-03-01T19:47:09;8.05;;;2.92;;
43449;SDS011;29041;42.266;23.110;2023-03-01T19:49:59;6.03;;;3.60;;
43449;SDS011;29041;42.266;23.110;2023-03-01T19:52:46;5.60;;;3.72;;
43449;SDS011;29041;42.266;23.110;2023-03-01T19:55:34;3.97;;;2.95;;
43449;SDS011;29041;42.266;23.110;2023-03-01T19:58:22;6.47;;;3.83;;
43449;SDS011;29041;42.266;23.110;2023-03-01T20:01:13;6.20;;;3.30;;
43449;SDS011;29041;42.266;23.110;2023-03-01T20:04:01;5.55;;;4.05;;
43449;SDS011;29041;42.266;23.110;2023-03-01T20:07:00;6.65;;;3.70;;
43449;SDS011;29041;42.266;23.110;2023-03-01T20:09:57;7.72;;;4.63;;
43449;SDS011;29041;42.266;23.110;2023-03-01T20:12:46;8.48;;;4.63;;
43449;SDS011;29041;42.266;23.110;2023-03-01T20:15:33;9.13;;;5.15;;
43449;SDS011;29041;42.266;23.110;2023-03-01T20:18:21;7.18;;;3.13;;
43449;SDS011;29041;42.266;23.110;2023-03-01T20:21:09;5.22;;;3.08;;
43449;SDS011;29041;42.266;23.110;2023-03-01T20:23:58;5.68;;;2.78;;
43449;SDS011;29041;42.266;23.110;2023-03-01T20:26:53;7.45;;;3.85;;
43449;SDS011;29041;42.266;23.110;2023-03-01T20:29:46;8.32;;;4.15;;
43449;SDS011;29041;42.266;23.110;2023-03-01T20:32:33;5.88;;;3.05;;
43449;SDS011;29041;42.266;23.110;2023-03-01T20:35:21;2.88;;;2.53;;
43449;SDS011;29041;42.266;23.110;2023-03-01T20:38:09;5.15;;;2.35;;
43449;SDS011;29041;42.266;23.110;2023-03-01T20:41:05;5.82;;;2.85;;
43449;SDS011;29041;42.266;23.110;2023-03-01T20:43:54;5.80;;;2.60;;
43449;SDS011;29041;42.266;23.110;2023-03-01T20:46:43;4.68;;;3.42;;
43449;SDS011;29041;42.266;23.110;2023-03-01T20:49:30;3.67;;;2.80;;
43449;SDS011;29041;42.266;23.110;2023-03-01T20:52:19;5.32;;;2.72;;
43449;SDS011;29041;42.266;23.110;2023-03-01T20:55:10;5.95;;;2.80;;
43449;SDS011;29041;42.266;23.110;2023-03-01T20:57:59;4.47;;;2.60;;
43449;SDS011;29041;42.266;23.110;2023-03-01T21:00:48;6.07;;;3.10;;
43449;SDS011;29041;42.266;23.110;2023-03-01T21:03:36;5.00;;;3.33;;
43449;SDS011;29041;42.266;23.110;2023-03-01T21:06:24;6.28;;;3.30;;
43449;SDS011;29041;42.266;23.110;2023-03-01T21:09:12;5.60;;;2.42;;
43449;SDS011;29041;42.266;23.110;2023-03-01T21:11:59;3.92;;;2.38;;
43449;SDS011;29041;42.266;23.110;2023-03-01T21:14:52;6.65;;;3.88;;
43449;SDS011;29041;42.266;23.110;2023-03-01T21:17:39;5.65;;;2.45;;
43449;SDS011;29041;42.266;23.110;2023-03-01T21:20:26;4.65;;;2.85;;
43449;SDS011;29041;42.266;23.110;2023-03-01T21:23:14;7.00;;;3.45;;
43449;SDS011;29041;42.266;23.110;2023-03-01T21:26:04;8.30;;;2.80;;
43449;SDS011;29041;42.266;23.110;2023-03-01T21:28:53;5.95;;;3.35;;
43449;SDS011;29041;42.266;23.110;2023-03-01T21:31:44;8.23;;;4.10;;
43449;SDS011;29041;42.266;23.110;2023-03-01T21:34:31;5.85;;;3.05;;
43449;SDS011;29041;42.266;23.110;2023-03-01T21:37:18;6.60;;;3.28;;
43449;SDS011;29041;42.266;23.110;2023-03-01T21:40:07;6.18;;;3.90;;
43449;SDS011;29041;42.266;23.110;2023-03-01T21:42:55;5.10;;;3.30;;
43449;SDS011;29041;42.266;23.110;2023-03-01T21:45:42;7.13;;;2.95;;
43449;SDS011;29041;42.266;23.110;2023-03-01T21:48:31;5.78;;;3.47;;
43449;SDS011;29041;42.266;23.110;2023-03-01T21:51:19;6.53;;;2.90;;
43449;SDS011;29041;42.266;23.110;2023-03-01T21:54:08;5.38;;;3.50;;
43449;SDS011;29041;42.266;23.110;2023-03-01T21:56:57;7.30;;;3.63;;
43449;SDS011;29041;42.266;23.110;2023-03-01T22:05:53;8.10;;;3.97;;
43449;SDS011;29041;42.266;23.110;2023-03-01T22:08:41;7.75;;;3.17;;
43449;SDS011;29041;42.266;23.110;2023-03-01T22:11:28;7.53;;;3.67;;
43449;SDS011;29041;42.266;23.110;2023-03-01T22:14:19;3.70;;;2.78;;
43449;SDS011;29041;42.266;23.110;2023-03-01T22:17:07;6.72;;;2.70;;
43449;SDS011;29041;42.266;23.110;2023-03-01T22:19:55;6.20;;;3.20;;
43449;SDS011;29041;42.266;23.110;2023-03-01T22:22:44;6.15;;;3.63;;
43449;SDS011;29041;42.266;23.110;2023-03-01T22:25:31;5.43;;;2.60;;
43449;SDS011;29041;42.266;23.110;2023-03-01T22:28:22;4.03;;;2.33;;
43449;SDS011;29041;42.266;23.110;2023-03-01T22:31:10;5.88;;;3.40;;
43449;SDS011;29041;42.266;23.110;2023-03-01T22:33:58;5.15;;;2.78;;
43449;SDS011;29041;42.266;23.110;2023-03-01T22:36:45;8.30;;;2.75;;
43449;SDS011;29041;42.266;23.110;2023-03-01T22:39:34;5.57;;;2.67;;
43449;SDS011;29041;42.266;23.110;2023-03-01T22:42:36;5.95;;;2.70;;
43449;SDS011;29041;42.266;23.110;2023-03-01T22:45:27;4.82;;;2.47;;
43449;SDS011;29041;42.266;23.110;2023-03-01T22:48:21;4.07;;;2.42;;
43449;SDS011;29041;42.266;23.110;2023-03-01T22:51:13;5.25;;;2.25;;
43449;SDS011;29041;42.266;23.110;2023-03-01T22:54:21;4.60;;;2.80;;
43449;SDS011;29041;42.266;23.110;2023-03-01T22:57:12;8.40;;;4.47;;
43449;SDS011;29041;42.266;23.110;2023-03-01T23:03:37;6.07;;;3.42;;
43449;SDS011;29041;42.266;23.110;2023-03-01T23:06:29;6.75;;;3.72;;
43449;SDS011;29041;42.266;23.110;2023-03-01T23:09:21;5.35;;;2.85;;
43449;SDS011;29041;42.266;23.110;2023-03-01T23:12:14;8.48;;;3.03;;
43449;SDS011;29041;42.266;23.110;2023-03-01T23:15:01;5.72;;;2.97;;
43449;SDS011;29041;42.266;23.110;2023-03-01T23:17:51;5.45;;;2.95;;
43449;SDS011;29041;42.266;23.110;2023-03-01T23:20:41;3.03;;;2.33;;
43449;SDS011;29041;42.266;23.110;2023-03-01T23:23:28;3.53;;;2.40;;
43449;SDS011;29041;42.266;23.110;2023-03-01T23:26:18;7.22;;;2.75;;
43449;SDS011;29041;42.266;23.110;2023-03-01T23:29:08;3.75;;;2.15;;
43449;SDS011;29041;42.266;23.110;2023-03-01T23:34:31;4.55;;;2.40;;
43449;SDS011;29041;42.266;23.110;2023-03-01T23:37:18;6.25;;;2.88;;
43449;SDS011;29041;42.266;23.110;2023-03-01T23:40:05;3.80;;;2.47;;
43449;SDS011;29041;42.266;23.110;2023-03-01T23:42:54;6.07;;;3.00;;
43449;SDS011;29041;42.266;23.110;2023-03-01T23:45:42;6.97;;;2.65;;
43449;SDS011;29041;42.266;23.110;2023-03-01T23:48:30;5.72;;;3.67;;
43449;SDS011;29041;42.266;23.110;2023-03-01T23:51:17;9.27;;;3.50;;
43449;SDS011;29041;42.266;23.110;2023-03-01T23:54:18;6.93;;;3.88;;
43449;SDS011;29041;42.266;23.110;2023-03-01T23:57:07;5.82;;;3.13;;
43449;SDS011;29041;42.266;23.110;2023-03-01T23:59:55;4.40;;;2.30;;
